createdAt,value
2022-09-28T00:00:58.999Z,11.70
2022-09-28T00:03:25.870Z,9.68
2022-09-28T00:05:52.771Z,11.02
2022-09-28T00:08:19.630Z,10.95
2022-09-28T00:10:54.889Z,7.75
2022-09-28T00:13:22.126Z,8.63
2022-09-28T00:15:58.409Z,8.93
2022-09-28T00:18:25.239Z,7.07
2022-09-28T00:21:21.549Z,8.75
2022-09-28T00:24:06.919Z,8.80
2022-09-28T00:26:34.152Z,9.15
2022-09-28T00:29:02.930Z,11.55
2022-09-28T00:31:32.850Z,9.45
2022-09-28T00:34:06.063Z,9.95
2022-09-28T00:36:33.257Z,9.48
2022-09-28T00:39:02.954Z,6.97
2022-09-28T00:41:29.776Z,8.52
2022-09-28T00:44:27.833Z,9.68
2022-09-28T00:47:12.707Z,8.00
2022-09-28T00:49:44.655Z,7.57
2022-09-28T00:52:15.515Z,8.90
2022-09-28T00:54:42.697Z,7.35
2022-09-28T00:57:09.985Z,10.25
2022-09-28T00:59:36.838Z,6.85
2022-09-28T01:02:03.791Z,9.95
2022-09-28T01:04:30.709Z,8.00
2022-09-28T01:06:57.907Z,8.32
2022-09-28T01:09:25.991Z,9.18
2022-09-28T01:11:52.822Z,7.25
2022-09-28T01:14:20.690Z,8.68
2022-09-28T01:17:08.421Z,8.35
2022-09-28T01:20:22.795Z,11.95
2022-09-28T01:23:14.182Z,8.98
2022-09-28T01:26:26.901Z,7.20
2022-09-28T01:28:57.336Z,11.27
2022-09-28T01:31:26.329Z,7.32
2022-09-28T01:33:59.786Z,6.95
2022-09-28T01:36:34.771Z,12.07
2022-09-28T01:39:34.997Z,8.40
2022-09-28T01:42:05.869Z,9.32
2022-09-28T01:44:37.421Z,11.93
2022-09-28T01:47:04.869Z,8.55
2022-09-28T01:49:38.728Z,9.43
2022-09-28T01:52:34.813Z,8.82
2022-09-28T01:55:11.888Z,8.57
2022-09-28T01:57:44.678Z,8.63
2022-09-28T02:00:14.182Z,11.80
2022-09-28T02:02:55.657Z,9.52
2022-09-28T02:05:33.103Z,9.98
2022-09-28T02:08:10.178Z,11.55
2022-09-28T02:10:46.388Z,11.05
2022-09-28T02:13:25.754Z,8.88
2022-09-28T02:16:03.025Z,13.55
2022-09-28T02:18:30.073Z,8.02
2022-09-28T02:21:13.470Z,10.80
2022-09-28T02:23:41.563Z,9.45
2022-09-28T02:26:10.665Z,11.57
2022-09-28T02:28:37.738Z,12.77
2022-09-28T02:31:04.937Z,6.40
2022-09-28T02:33:37.130Z,7.30
2022-09-28T02:36:04.416Z,8.15
2022-09-28T02:38:37.178Z,9.90
2022-09-28T02:41:10.837Z,7.38
2022-09-28T02:43:58.313Z,8.13
2022-09-28T02:46:49.711Z,10.70
2022-09-28T02:49:36.743Z,10.32
2022-09-28T02:52:20.882Z,11.00
2022-09-28T02:55:29.730Z,9.70
2022-09-28T02:58:18.223Z,8.02
2022-09-28T03:00:49.421Z,10.75
2022-09-28T03:03:24.051Z,12.35
2022-09-28T03:06:00.334Z,10.25
2022-09-28T03:08:40.619Z,9.25
2022-09-28T03:11:12.979Z,8.95
2022-09-28T03:13:40.093Z,9.45
2022-09-28T03:16:17.837Z,8.05
2022-09-28T03:18:47.374Z,11.10
2022-09-28T03:21:14.862Z,6.20
2022-09-28T03:23:42.153Z,12.55
2022-09-28T03:26:13.706Z,9.68
2022-09-28T03:28:40.717Z,8.73
2022-09-28T03:31:11.416Z,7.70
2022-09-28T03:33:38.402Z,9.00
2022-09-28T03:36:05.959Z,8.10
2022-09-28T03:38:32.866Z,8.55
2022-09-28T03:41:00.511Z,8.60
2022-09-28T03:43:32.849Z,10.73
2022-09-28T03:46:02.475Z,9.23
2022-09-28T03:48:34.606Z,8.82
2022-09-28T03:51:03.401Z,8.80
2022-09-28T03:53:30.320Z,7.78
2022-09-28T03:56:02.794Z,11.25
2022-09-28T03:58:31.921Z,10.82
2022-09-28T04:01:06.967Z,9.15
2022-09-28T04:03:33.881Z,9.15
2022-09-28T04:06:00.801Z,9.85
2022-09-28T04:08:27.969Z,9.10
2022-09-28T04:10:58.547Z,11.27
2022-09-28T04:13:26.611Z,7.82
2022-09-28T04:15:57.480Z,10.35
2022-09-28T04:18:25.603Z,9.65
2022-09-28T04:21:06.819Z,9.90
2022-09-28T04:23:38.894Z,8.25
2022-09-28T04:26:06.953Z,7.30
2022-09-28T04:28:52.264Z,12.80
2022-09-28T04:31:20.812Z,9.15
2022-09-28T04:33:47.744Z,14.52
2022-09-28T04:36:14.683Z,9.82
2022-09-28T04:38:52.709Z,9.73
2022-09-28T04:41:22.525Z,9.55
2022-09-28T04:43:50.344Z,10.63
2022-09-28T04:46:17.286Z,9.15
2022-09-28T04:48:53.915Z,11.25
2022-09-28T04:51:45.120Z,11.55
2022-09-28T04:54:12.096Z,11.60
2022-09-28T04:56:39.007Z,11.48
2022-09-28T04:59:06.139Z,6.93
2022-09-28T05:01:33.088Z,10.48
2022-09-28T05:04:00.003Z,10.38
2022-09-28T05:06:43.366Z,10.82
2022-09-28T05:09:10.327Z,10.98
2022-09-28T05:11:37.238Z,8.75
2022-09-28T05:14:08.536Z,9.52
2022-09-28T05:16:35.869Z,8.63
2022-09-28T05:19:18.017Z,13.98
2022-09-28T05:21:45.659Z,10.02
2022-09-28T05:24:12.982Z,8.43
2022-09-28T05:26:40.506Z,8.05
2022-09-28T05:29:09.514Z,11.20
2022-09-28T05:32:02.621Z,9.68
2022-09-28T05:34:46.574Z,8.52
2022-09-28T05:37:19.445Z,13.90
2022-09-28T05:39:47.108Z,8.73
2022-09-28T05:42:13.905Z,15.35
2022-09-28T05:44:42.614Z,11.13
2022-09-28T05:47:09.686Z,7.53
2022-09-28T05:49:36.522Z,8.40
2022-09-28T05:52:03.513Z,9.57
2022-09-28T05:54:31.584Z,11.80
2022-09-28T05:56:58.502Z,9.45
2022-09-28T05:59:26.778Z,11.50
2022-09-28T06:01:53.755Z,10.88
2022-09-28T06:04:21.149Z,12.15
2022-09-28T06:06:48.524Z,7.90
2022-09-28T06:09:16.591Z,12.93
2022-09-28T06:12:11.136Z,9.90
2022-09-28T06:14:44.131Z,15.10
2022-09-28T06:17:11.870Z,9.60
2022-09-28T06:19:39.254Z,11.15
2022-09-28T06:22:24.895Z,15.38
2022-09-28T06:24:59.479Z,10.65
2022-09-28T06:27:26.437Z,10.25
2022-09-28T06:29:53.576Z,9.27
2022-09-28T06:32:20.413Z,11.43
2022-09-28T06:34:52.841Z,10.23
2022-09-28T06:37:25.998Z,12.10
2022-09-28T06:39:53.611Z,11.70
2022-09-28T06:42:20.850Z,12.02
2022-09-28T06:45:11.771Z,13.95
2022-09-28T06:50:37.575Z,11.20
2022-09-28T06:53:33.662Z,12.50
2022-09-28T06:56:11.304Z,10.20
2022-09-28T06:58:38.251Z,15.00
2022-09-28T07:01:06.158Z,10.48
2022-09-28T07:03:45.234Z,10.75
2022-09-28T07:06:32.354Z,10.40
2022-09-28T07:09:31.720Z,9.57
2022-09-28T07:12:18.641Z,10.95
2022-09-28T07:15:12.175Z,11.50
2022-09-28T07:17:53.843Z,13.60
2022-09-28T07:20:25.415Z,11.60
2022-09-28T07:22:56.477Z,12.50
2022-09-28T07:25:25.592Z,9.52
2022-09-28T07:28:27.211Z,11.80
2022-09-28T07:31:29.691Z,10.00
2022-09-28T07:34:32.315Z,11.35
2022-09-28T07:37:03.084Z,12.90
2022-09-28T07:39:30.024Z,11.68
2022-09-28T07:42:02.650Z,10.60
2022-09-28T07:44:30.946Z,11.43
2022-09-28T07:46:58.598Z,11.45
2022-09-28T07:49:51.198Z,11.07
2022-09-28T07:52:46.295Z,14.75
2022-09-28T07:55:24.734Z,9.93
2022-09-28T07:58:19.383Z,11.02
2022-09-28T08:01:21.614Z,10.95
2022-09-28T08:03:49.768Z,15.30
2022-09-28T08:06:17.126Z,10.25
2022-09-28T08:08:44.661Z,19.55
2022-09-28T08:11:14.973Z,12.05
2022-09-28T08:14:00.643Z,11.93
2022-09-28T08:16:48.514Z,10.05
2022-09-28T08:19:53.849Z,13.40
2022-09-28T08:22:20.848Z,13.55
2022-09-28T08:24:52.065Z,9.80
2022-09-28T08:27:19.016Z,11.65
2022-09-28T08:29:45.970Z,10.77
2022-09-28T08:32:39.071Z,12.38
2022-09-28T08:35:25.713Z,11.48
2022-09-28T08:38:11.565Z,10.23
2022-09-28T08:41:26.500Z,12.85
2022-09-28T08:44:12.518Z,11.25
2022-09-28T08:47:38.305Z,9.82
2022-09-28T08:50:27.778Z,10.38
2022-09-28T08:53:05.862Z,11.00
2022-09-28T08:55:50.183Z,11.90
2022-09-28T08:58:28.334Z,11.05
2022-09-28T09:00:55.499Z,10.60
2022-09-28T09:03:35.851Z,11.43
2022-09-28T09:06:42.751Z,11.10
2022-09-28T09:09:46.515Z,13.18
2022-09-28T09:12:23.586Z,13.25
2022-09-28T09:15:17.178Z,10.95
2022-09-28T09:17:50.096Z,12.90
2022-09-28T09:20:35.692Z,14.13
2022-09-28T09:23:36.365Z,11.88
2022-09-28T09:26:22.970Z,10.30
2022-09-28T09:29:05.741Z,10.30
2022-09-28T09:31:56.994Z,14.98
2022-09-28T09:34:45.526Z,12.77
2022-09-28T09:38:17.393Z,11.68
2022-09-28T09:41:43.412Z,8.25
2022-09-28T09:44:53.599Z,9.77
2022-09-28T09:47:40.382Z,11.50
2022-09-28T09:50:29.702Z,10.85
2022-09-28T09:53:12.045Z,9.38
2022-09-28T09:55:41.862Z,10.10
2022-09-28T09:58:35.663Z,9.13
2022-09-28T10:01:30.274Z,10.77
2022-09-28T10:04:32.958Z,8.27
2022-09-28T10:07:06.305Z,10.43
2022-09-28T10:09:43.041Z,9.13
2022-09-28T10:12:22.143Z,9.98
2022-09-28T10:14:50.134Z,10.45
2022-09-28T10:17:20.139Z,8.18
2022-09-28T10:20:06.294Z,9.52
2022-09-28T10:23:02.076Z,11.25
2022-09-28T10:25:33.197Z,9.98
2022-09-28T10:28:00.527Z,7.60
2022-09-28T10:30:28.428Z,10.88
2022-09-28T10:32:59.365Z,6.60
2022-09-28T10:35:39.529Z,7.80
2022-09-28T10:38:07.929Z,5.88
2022-09-28T10:40:48.775Z,10.23
2022-09-28T10:43:24.127Z,5.55
2022-09-28T10:46:08.633Z,5.60
2022-09-28T10:48:48.689Z,6.57
2022-09-28T10:51:16.571Z,6.97
2022-09-28T10:54:01.530Z,5.70
2022-09-28T10:56:55.498Z,5.55
2022-09-28T10:59:28.770Z,4.50
2022-09-28T11:02:13.157Z,4.75
2022-09-28T11:04:41.833Z,6.20
2022-09-28T11:07:25.073Z,4.30
2022-09-28T11:09:54.589Z,5.72
2022-09-28T11:12:26.357Z,4.55
2022-09-28T11:15:01.538Z,5.80
2022-09-28T11:17:33.198Z,5.28
2022-09-28T11:20:26.763Z,6.72
2022-09-28T11:23:08.552Z,5.07
2022-09-28T11:25:39.554Z,5.38
2022-09-28T11:28:06.513Z,4.07
2022-09-28T11:30:52.855Z,5.20
2022-09-28T11:33:30.663Z,3.42
2022-09-28T11:36:53.151Z,5.85
2022-09-28T11:39:33.745Z,5.32
2022-09-28T11:42:19.814Z,5.68
2022-09-28T11:44:49.132Z,4.93
2022-09-28T11:47:26.339Z,7.88
2022-09-28T11:49:56.252Z,4.70
2022-09-28T11:52:33.871Z,5.38
2022-09-28T11:55:15.125Z,5.35
2022-09-28T11:57:43.967Z,5.10
2022-09-28T12:00:15.977Z,4.93
2022-09-28T12:03:13.679Z,4.03
2022-09-28T12:05:55.902Z,3.97
2022-09-28T12:08:37.445Z,3.80
2022-09-28T12:11:12.005Z,5.72
2022-09-28T12:13:59.998Z,6.07
2022-09-28T12:19:35.559Z,4.53
2022-09-28T12:22:11.240Z,4.85
2022-09-28T12:24:40.614Z,5.00
2022-09-28T12:27:10.241Z,8.20
2022-09-28T12:29:59.286Z,4.45
2022-09-28T12:32:46.799Z,6.13
2022-09-28T12:35:25.658Z,6.65
2022-09-28T12:38:01.504Z,4.78
2022-09-28T12:40:47.157Z,4.20
2022-09-28T12:43:33.439Z,5.13
2022-09-28T12:46:12.656Z,5.50
2022-09-28T12:49:43.556Z,4.65
2022-09-28T12:51:59.703Z,6.50
2022-09-28T12:54:41.890Z,5.38
2022-09-28T12:57:40.697Z,5.40
2022-09-28T13:00:12.028Z,5.85
2022-09-28T13:02:48.366Z,4.07
2022-09-28T13:05:55.809Z,4.95
2022-09-28T13:08:31.580Z,5.03
2022-09-28T13:11:06.946Z,4.88
2022-09-28T13:14:19.437Z,4.50
2022-09-28T13:17:06.647Z,5.25
2022-09-28T13:19:51.869Z,5.15
2022-09-28T13:22:34.141Z,6.82
2022-09-28T13:25:03.719Z,5.32
2022-09-28T13:27:36.146Z,4.65
2022-09-28T13:30:06.241Z,5.32
2022-09-28T13:32:33.430Z,4.55
2022-09-28T13:35:02.113Z,3.70
2022-09-28T13:37:29.452Z,4.80
2022-09-28T13:39:59.140Z,5.28
2022-09-28T13:42:32.159Z,5.53
2022-09-28T13:45:22.150Z,5.00
2022-09-28T13:47:51.801Z,3.92
2022-09-28T13:50:27.931Z,4.85
2022-09-28T13:53:01.367Z,4.63
2022-09-28T13:55:56.878Z,4.25
2022-09-28T13:58:32.914Z,4.28
2022-09-28T14:01:01.507Z,4.70
2022-09-28T14:03:48.900Z,6.15
2022-09-28T14:06:28.556Z,5.43
2022-09-28T14:09:13.819Z,5.40
2022-09-28T14:11:42.561Z,4.80
2022-09-28T14:14:13.812Z,3.67
2022-09-28T14:16:41.483Z,6.05
2022-09-28T14:19:13.603Z,4.93
2022-09-28T14:22:03.272Z,5.05
2022-09-28T14:24:51.195Z,5.90
2022-09-28T14:27:36.997Z,3.13
2022-09-28T14:30:12.626Z,4.07
2022-09-28T14:32:40.910Z,4.72
2022-09-28T14:35:18.640Z,3.45
2022-09-28T14:38:20.291Z,5.13
2022-09-28T14:41:09.848Z,4.57
2022-09-28T14:43:45.983Z,4.22
2022-09-28T14:46:14.517Z,3.78
2022-09-28T14:49:03.680Z,5.22
2022-09-28T14:51:30.540Z,4.05
2022-09-28T14:54:13.285Z,7.28
2022-09-28T14:56:57.088Z,4.65
2022-09-28T14:59:25.888Z,3.88
2022-09-28T15:01:55.514Z,6.57
2022-09-28T15:04:23.779Z,4.07
2022-09-28T15:06:51.455Z,6.40
2022-09-28T15:09:36.401Z,4.85
2022-09-28T15:12:30.071Z,5.72
2022-09-28T15:15:08.594Z,6.95
2022-09-28T15:17:39.751Z,6.25
2022-09-28T15:20:25.637Z,8.00
2022-09-28T15:22:57.289Z,5.72
2022-09-28T15:25:28.934Z,6.00
2022-09-28T15:27:57.339Z,9.38
2022-09-28T15:30:32.050Z,4.53
2022-09-28T15:33:18.544Z,5.28
2022-09-28T15:35:55.165Z,5.82
2022-09-28T15:38:21.970Z,6.47
2022-09-28T15:40:48.880Z,6.60
2022-09-28T15:43:28.951Z,5.38
2022-09-28T15:46:14.043Z,5.53
2022-09-28T15:48:53.367Z,5.80
2022-09-28T15:51:21.421Z,6.47
2022-09-28T15:54:01.333Z,5.30
2022-09-28T15:56:28.401Z,4.57
2022-09-28T15:59:14.361Z,6.15
2022-09-28T16:01:44.578Z,5.05
2022-09-28T16:04:30.378Z,6.25
2022-09-28T16:07:36.992Z,6.65
2022-09-28T16:10:12.453Z,5.15
2022-09-28T16:12:48.586Z,4.25
2022-09-28T16:15:49.681Z,5.10
2022-09-28T16:18:20.278Z,5.28
2022-09-28T16:20:49.950Z,5.03
2022-09-28T16:23:17.097Z,3.75
2022-09-28T16:25:54.740Z,4.93
2022-09-28T16:28:34.745Z,6.15
2022-09-28T16:31:13.881Z,5.35
2022-09-28T16:33:45.158Z,4.88
2022-09-28T16:36:13.383Z,9.57
2022-09-28T16:38:41.026Z,7.45
2022-09-28T16:41:08.516Z,5.18
2022-09-28T16:43:36.613Z,4.78
2022-09-28T16:46:09.328Z,7.07
2022-09-28T16:48:39.590Z,4.38
2022-09-28T16:51:06.473Z,5.30
2022-09-28T16:53:51.647Z,3.42
2022-09-28T16:56:18.549Z,5.28
2022-09-28T16:58:48.077Z,6.63
2022-09-28T17:01:15.065Z,5.28
2022-09-28T17:03:46.938Z,4.72
2022-09-28T17:06:13.973Z,5.05
2022-09-28T17:08:41.590Z,5.65
2022-09-28T17:11:16.584Z,5.50
2022-09-28T17:13:46.620Z,10.30
2022-09-28T17:16:14.590Z,11.55
2022-09-28T17:18:41.723Z,10.68
2022-09-28T17:21:19.531Z,9.77
2022-09-28T17:23:47.467Z,10.38
2022-09-28T17:26:30.234Z,12.80
2022-09-28T17:29:01.593Z,10.32
2022-09-28T17:31:31.810Z,9.80
2022-09-28T17:33:58.926Z,10.73
2022-09-28T17:36:26.964Z,10.30
2022-09-28T17:38:53.879Z,10.48
2022-09-28T17:41:21.163Z,9.88
2022-09-28T17:43:48.747Z,10.57
2022-09-28T17:46:28.030Z,8.27
2022-09-28T17:48:55.450Z,11.00
2022-09-28T17:51:23.709Z,9.38
2022-09-28T17:53:50.638Z,7.65
2022-09-28T17:56:17.515Z,7.95
2022-09-28T17:58:44.363Z,8.38
2022-09-28T18:01:11.213Z,8.75
2022-09-28T18:03:38.587Z,12.18
2022-09-28T18:06:06.741Z,12.13
2022-09-28T18:08:33.657Z,11.40
2022-09-28T18:11:01.635Z,9.95
2022-09-28T18:13:28.734Z,10.48
2022-09-28T18:15:55.848Z,10.05
2022-09-28T18:18:23.358Z,9.23
2022-09-28T18:20:50.692Z,11.00
2022-09-28T18:23:17.707Z,9.10
2022-09-28T18:25:45.440Z,9.40
2022-09-28T18:28:12.773Z,10.73
2022-09-28T18:30:41.009Z,8.57
2022-09-28T18:33:09.990Z,7.75
2022-09-28T18:35:36.841Z,7.80
2022-09-28T18:38:05.341Z,8.02
2022-09-28T18:40:33.581Z,7.38
2022-09-28T18:43:00.430Z,8.73
2022-09-28T18:45:27.421Z,7.57
2022-09-28T18:47:54.197Z,6.53
2022-09-28T18:50:21.169Z,7.32
2022-09-28T18:52:48.286Z,7.82
2022-09-28T18:55:15.875Z,8.57
2022-09-28T18:57:44.129Z,8.77
2022-09-28T19:00:11.808Z,10.52
2022-09-28T19:02:38.837Z,9.50
2022-09-28T19:05:06.492Z,9.60
2022-09-28T19:07:33.897Z,8.57
2022-09-28T19:10:00.813Z,7.20
2022-09-28T19:12:27.653Z,7.72
2022-09-28T19:14:54.663Z,7.55
2022-09-28T19:17:21.619Z,13.82
2022-09-28T19:19:48.463Z,7.35
2022-09-28T19:22:15.274Z,8.75
2022-09-28T19:24:42.143Z,6.97
2022-09-28T19:27:09.014Z,7.50
2022-09-28T19:29:35.987Z,7.25
2022-09-28T19:32:02.840Z,11.77
2022-09-28T19:34:30.174Z,8.30
2022-09-28T19:36:57.215Z,8.85
2022-09-28T19:39:24.057Z,11.10
2022-09-28T19:41:54.268Z,10.35
2022-09-28T19:44:29.631Z,9.50
2022-09-28T19:47:07.402Z,7.18
2022-09-28T19:49:38.293Z,8.05
2022-09-28T19:52:15.596Z,9.38
2022-09-28T19:54:59.895Z,6.95
2022-09-28T19:57:28.750Z,7.85
2022-09-28T20:00:00.795Z,9.00
2022-09-28T20:02:32.753Z,6.25
2022-09-28T20:04:59.644Z,8.73
2022-09-28T20:07:26.453Z,8.95
2022-09-28T20:09:53.722Z,7.90
2022-09-28T20:12:20.580Z,8.77
2022-09-28T20:14:47.475Z,7.25
2022-09-28T20:17:14.384Z,7.80
2022-09-28T20:19:41.375Z,8.07
2022-09-28T20:22:08.409Z,7.13
2022-09-28T20:24:35.226Z,8.55
2022-09-28T20:27:02.496Z,8.07
2022-09-28T20:29:31.728Z,8.90
2022-09-28T20:31:59.096Z,7.88
2022-09-28T20:34:25.990Z,8.27
2022-09-28T20:36:52.953Z,8.35
2022-09-28T20:39:19.852Z,7.45
2022-09-28T20:41:49.128Z,7.63
2022-09-28T20:44:16.229Z,7.88
2022-09-28T20:46:44.127Z,7.78
2022-09-28T20:49:11.135Z,7.32
2022-09-28T20:51:37.934Z,8.63
2022-09-28T20:54:04.935Z,8.95
2022-09-28T20:56:39.271Z,12.75
2022-09-28T20:59:10.747Z,13.65
2022-09-28T21:01:37.757Z,13.57
2022-09-28T21:04:05.407Z,13.95
2022-09-28T21:06:34.289Z,13.45
2022-09-28T21:09:01.203Z,11.70
2022-09-28T21:11:28.418Z,14.13
2022-09-28T21:13:58.148Z,10.90
2022-09-28T21:16:25.491Z,10.60
2022-09-28T21:18:52.367Z,8.35
2022-09-28T21:21:20.229Z,10.75
2022-09-28T21:23:47.281Z,9.63
2022-09-28T21:26:15.991Z,9.35
2022-09-28T21:28:44.705Z,7.50
2022-09-28T21:31:12.103Z,7.80
2022-09-28T21:33:38.969Z,9.23
2022-09-28T21:36:06.971Z,11.32
2022-09-28T21:38:34.179Z,8.60
2022-09-28T21:41:01.238Z,7.88
2022-09-28T21:43:28.795Z,11.50
2022-09-28T21:45:56.009Z,10.68
2022-09-28T21:48:23.610Z,10.70
2022-09-28T21:51:00.683Z,11.23
2022-09-28T21:53:32.162Z,9.70
2022-09-28T21:56:00.045Z,13.05
2022-09-28T21:58:29.239Z,14.70
2022-09-28T22:01:02.377Z,11.57
2022-09-28T22:03:30.175Z,12.07
2022-09-28T22:05:57.099Z,11.48
2022-09-28T22:08:24.236Z,14.45
2022-09-28T22:11:03.349Z,12.25
2022-09-28T22:13:31.515Z,12.30
2022-09-28T22:15:58.830Z,11.73
2022-09-28T22:18:26.950Z,10.90
2022-09-28T22:21:07.216Z,10.90
2022-09-28T22:23:34.227Z,11.20
2022-09-28T22:26:01.950Z,13.85
2022-09-28T22:28:29.146Z,12.93
2022-09-28T22:30:56.718Z,12.70
2022-09-28T22:33:23.783Z,10.40
2022-09-28T22:35:51.333Z,11.27
2022-09-28T22:38:19.170Z,12.30
2022-09-28T22:40:54.722Z,11.32
2022-09-28T22:43:25.503Z,11.85
2022-09-28T22:46:06.250Z,11.25
2022-09-28T22:48:33.457Z,9.98
2022-09-28T22:51:00.575Z,11.48
2022-09-28T22:53:28.513Z,10.07
2022-09-28T22:55:56.341Z,10.32
2022-09-28T22:58:23.731Z,9.05
2022-09-28T23:00:50.550Z,9.32
2022-09-28T23:03:17.873Z,10.27
2022-09-28T23:05:54.626Z,9.60
2022-09-28T23:08:21.659Z,10.13
2022-09-28T23:10:48.761Z,8.32
2022-09-28T23:13:15.739Z,7.78
2022-09-28T23:15:42.852Z,9.40
2022-09-28T23:18:09.842Z,8.68
2022-09-28T23:20:36.827Z,10.13
2022-09-28T23:23:03.632Z,10.73
2022-09-28T23:25:30.565Z,10.70
2022-09-28T23:27:57.447Z,9.07
2022-09-28T23:30:24.330Z,7.95
2022-09-28T23:32:54.323Z,9.18
2022-09-28T23:35:21.473Z,9.70
2022-09-28T23:37:51.762Z,8.82
2022-09-28T23:40:18.963Z,9.20
2022-09-28T23:42:45.861Z,7.65
2022-09-28T23:45:12.656Z,7.93
2022-09-28T23:47:39.650Z,8.77
2022-09-28T23:50:06.863Z,8.63
2022-09-28T23:52:34.089Z,7.38
2022-09-28T23:55:01.226Z,9.43
2022-09-28T23:57:28.124Z,7.88
2022-09-28T23:59:54.988Z,7.53
